sensor_id;sensor_type;location;lat;lon;timestamp;temperature;humidity
16114;DHT22;8161;-33.910;151.156;2023-02-05T00:01:53;27.90;96.40
16114;DHT22;8161;-33.910;151.156;2023-02-05T00:04:20;27.40;95.10
16114;DHT22;8161;-33.910;151.156;2023-02-05T00:06:47;27.80;94.40
16114;DHT22;8161;-33.910;151.156;2023-02-05T00:09:15;27.70;92.00
16114;DHT22;8161;-33.910;151.156;2023-02-05T00:11:42;27.60;92.60
16114;DHT22;8161;-33.910;151.156;2023-02-05T00:14:09;28.10;92.00
16114;DHT22;8161;-33.910;151.156;2023-02-05T00:16:36;28.10;91.30
16114;DHT22;8161;-33.910;151.156;2023-02-05T00:19:04;28.10;87.60
16114;DHT22;8161;-33.910;151.156;2023-02-05T00:21:31;28.20;90.50
16114;DHT22;8161;-33.910;151.156;2023-02-05T00:23:59;28.00;90.10
16114;DHT22;8161;-33.910;151.156;2023-02-05T00:26:26;28.00;86.80
16114;DHT22;8161;-33.910;151.156;2023-02-05T00:28:54;28.30;92.20
16114;DHT22;8161;-33.910;151.156;2023-02-05T00:31:23;28.20;92.00
16114;DHT22;8161;-33.910;151.156;2023-02-05T00:33:51;28.10;91.20
16114;DHT22;8161;-33.910;151.156;2023-02-05T00:36:19;28.10;90.30
16114;DHT22;8161;-33.910;151.156;2023-02-05T00:38:47;28.40;90.40
16114;DHT22;8161;-33.910;151.156;2023-02-05T00:41:15;28.30;85.70
16114;DHT22;8161;-33.910;151.156;2023-02-05T00:43:44;28.20;88.50
16114;DHT22;8161;-33.910;151.156;2023-02-05T00:46:12;28.20;87.90
16114;DHT22;8161;-33.910;151.156;2023-02-05T00:48:41;28.00;89.00
16114;DHT22;8161;-33.910;151.156;2023-02-05T00:51:10;28.10;89.40
16114;DHT22;8161;-33.910;151.156;2023-02-05T00:53:38;27.80;88.20
16114;DHT22;8161;-33.910;151.156;2023-02-05T00:56:06;28.10;90.20
16114;DHT22;8161;-33.910;151.156;2023-02-05T00:58:33;28.60;85.50
16114;DHT22;8161;-33.910;151.156;2023-02-05T01:01:00;28.90;85.50
16114;DHT22;8161;-33.910;151.156;2023-02-05T01:03:28;28.90;89.60
16114;DHT22;8161;-33.910;151.156;2023-02-05T01:05:55;29.30;87.90
16114;DHT22;8161;-33.910;151.156;2023-02-05T01:08:23;29.70;87.10
16114;DHT22;8161;-33.910;151.156;2023-02-05T01:10:50;29.80;85.70
16114;DHT22;8161;-33.910;151.156;2023-02-05T01:13:18;30.40;86.20
16114;DHT22;8161;-33.910;151.156;2023-02-05T01:15:46;29.80;86.00
16114;DHT22;8161;-33.910;151.156;2023-02-05T01:18:13;30.30;80.70
16114;DHT22;8161;-33.910;151.156;2023-02-05T01:20:42;30.10;81.50
16114;DHT22;8161;-33.910;151.156;2023-02-05T01:23:10;30.70;81.90
16114;DHT22;8161;-33.910;151.156;2023-02-05T01:25:38;29.80;85.20
16114;DHT22;8161;-33.910;151.156;2023-02-05T01:28:05;30.30;90.10
16114;DHT22;8161;-33.910;151.156;2023-02-05T01:30:34;29.90;87.30
16114;DHT22;8161;-33.910;151.156;2023-02-05T01:33:02;30.30;91.80
16114;DHT22;8161;-33.910;151.156;2023-02-05T01:35:29;30.60;91.60
16114;DHT22;8161;-33.910;151.156;2023-02-05T01:37:56;30.20;91.50
16114;DHT22;8161;-33.910;151.156;2023-02-05T01:40:24;30.90;92.70
16114;DHT22;8161;-33.910;151.156;2023-02-05T01:42:51;30.50;90.30
16114;DHT22;8161;-33.910;151.156;2023-02-05T01:50:19;31.10;91.40
16114;DHT22;8161;-33.910;151.156;2023-02-05T01:52:49;30.90;88.50
16114;DHT22;8161;-33.910;151.156;2023-02-05T01:55:16;30.90;88.40
16114;DHT22;8161;-33.910;151.156;2023-02-05T01:57:45;31.60;89.50
16114;DHT22;8161;-33.910;151.156;2023-02-05T02:00:13;30.90;85.00
16114;DHT22;8161;-33.910;151.156;2023-02-05T02:02:41;30.70;87.40
16114;DHT22;8161;-33.910;151.156;2023-02-05T02:05:13;30.90;82.60
16114;DHT22;8161;-33.910;151.156;2023-02-05T02:07:40;31.50;87.80
16114;DHT22;8161;-33.910;151.156;2023-02-05T02:10:10;31.30;86.60
16114;DHT22;8161;-33.910;151.156;2023-02-05T02:12:40;31.50;86.70
16114;DHT22;8161;-33.910;151.156;2023-02-05T02:15:13;31.40;82.40
16114;DHT22;8161;-33.910;151.156;2023-02-05T02:17:44;31.50;81.50
16114;DHT22;8161;-33.910;151.156;2023-02-05T02:20:18;31.50;79.40
16114;DHT22;8161;-33.910;151.156;2023-02-05T02:28:03;31.40;84.20
16114;DHT22;8161;-33.910;151.156;2023-02-05T02:30:51;32.00;85.00
16114;DHT22;8161;-33.910;151.156;2023-02-05T02:36:12;31.90;84.10
16114;DHT22;8161;-33.910;151.156;2023-02-05T02:41:41;32.10;82.20
16114;DHT22;8161;-33.910;151.156;2023-02-05T02:44:24;32.20;81.70
16114;DHT22;8161;-33.910;151.156;2023-02-05T02:46:58;32.20;82.60
16114;DHT22;8161;-33.910;151.156;2023-02-05T02:52:21;32.70;86.30
16114;DHT22;8161;-33.910;151.156;2023-02-05T02:54:53;32.30;83.00
16114;DHT22;8161;-33.910;151.156;2023-02-05T02:57:24;32.50;80.10
16114;DHT22;8161;-33.910;151.156;2023-02-05T02:59:55;32.50;80.90
16114;DHT22;8161;-33.910;151.156;2023-02-05T03:02:26;32.40;80.00
16114;DHT22;8161;-33.910;151.156;2023-02-05T03:04:58;32.30;80.90
16114;DHT22;8161;-33.910;151.156;2023-02-05T03:07:35;32.40;82.10
16114;DHT22;8161;-33.910;151.156;2023-02-05T03:12:57;32.60;85.40
16114;DHT22;8161;-33.910;151.156;2023-02-05T03:15:25;32.60;80.80
16114;DHT22;8161;-33.910;151.156;2023-02-05T03:17:53;32.60;81.20
16114;DHT22;8161;-33.910;151.156;2023-02-05T03:20:30;32.70;82.30
16114;DHT22;8161;-33.910;151.156;2023-02-05T03:22:59;32.80;81.30
16114;DHT22;8161;-33.910;151.156;2023-02-05T03:25:28;32.60;84.50
16114;DHT22;8161;-33.910;151.156;2023-02-05T03:27:57;32.80;81.90
16114;DHT22;8161;-33.910;151.156;2023-02-05T03:30:41;33.00;81.90
16114;DHT22;8161;-33.910;151.156;2023-02-05T03:36:11;32.40;82.00
16114;DHT22;8161;-33.910;151.156;2023-02-05T03:38:53;31.80;84.50
16114;DHT22;8161;-33.910;151.156;2023-02-05T03:47:14;32.20;82.80
16114;DHT22;8161;-33.910;151.156;2023-02-05T03:50:07;32.40;84.00
16114;DHT22;8161;-33.910;151.156;2023-02-05T03:52:41;32.40;80.40
16114;DHT22;8161;-33.910;151.156;2023-02-05T03:55:19;32.40;81.20
16114;DHT22;8161;-33.910;151.156;2023-02-05T03:58:18;32.70;82.10
16114;DHT22;8161;-33.910;151.156;2023-02-05T04:00:44;32.90;83.10
16114;DHT22;8161;-33.910;151.156;2023-02-05T04:03:12;32.70;86.50
16114;DHT22;8161;-33.910;151.156;2023-02-05T04:05:43;32.80;84.40
16114;DHT22;8161;-33.910;151.156;2023-02-05T04:08:11;32.60;84.80
16114;DHT22;8161;-33.910;151.156;2023-02-05T04:10:38;33.00;81.30
16114;DHT22;8161;-33.910;151.156;2023-02-05T04:13:05;33.20;81.20
16114;DHT22;8161;-33.910;151.156;2023-02-05T04:15:33;33.30;81.10
16114;DHT22;8161;-33.910;151.156;2023-02-05T04:18:03;33.00;83.40
16114;DHT22;8161;-33.910;151.156;2023-02-05T04:20:30;33.30;81.40
16114;DHT22;8161;-33.910;151.156;2023-02-05T04:22:57;33.30;80.10
16114;DHT22;8161;-33.910;151.156;2023-02-05T04:25:24;33.20;79.10
16114;DHT22;8161;-33.910;151.156;2023-02-05T04:27:53;32.90;80.60
16114;DHT22;8161;-33.910;151.156;2023-02-05T04:30:20;33.10;81.40
16114;DHT22;8161;-33.910;151.156;2023-02-05T04:32:47;33.10;80.80
16114;DHT22;8161;-33.910;151.156;2023-02-05T04:35:15;32.80;79.60
16114;DHT22;8161;-33.910;151.156;2023-02-05T04:37:42;32.80;80.80
16114;DHT22;8161;-33.910;151.156;2023-02-05T04:40:10;32.60;81.30
16114;DHT22;8161;-33.910;151.156;2023-02-05T04:42:37;32.70;80.80
16114;DHT22;8161;-33.910;151.156;2023-02-05T04:45:06;32.10;81.90
16114;DHT22;8161;-33.910;151.156;2023-02-05T04:47:34;32.20;79.80
16114;DHT22;8161;-33.910;151.156;2023-02-05T04:50:01;31.80;80.40
16114;DHT22;8161;-33.910;151.156;2023-02-05T04:52:29;31.90;82.20
16114;DHT22;8161;-33.910;151.156;2023-02-05T04:54:56;31.90;80.10
16114;DHT22;8161;-33.910;151.156;2023-02-05T04:57:24;32.10;81.50
16114;DHT22;8161;-33.910;151.156;2023-02-05T04:59:52;32.30;80.90
16114;DHT22;8161;-33.910;151.156;2023-02-05T05:02:19;32.30;80.50
16114;DHT22;8161;-33.910;151.156;2023-02-05T05:04:46;32.60;80.40
16114;DHT22;8161;-33.910;151.156;2023-02-05T05:07:13;33.20;81.40
16114;DHT22;8161;-33.910;151.156;2023-02-05T05:09:43;32.70;79.00
16114;DHT22;8161;-33.910;151.156;2023-02-05T05:12:10;32.80;79.90
16114;DHT22;8161;-33.910;151.156;2023-02-05T05:14:38;33.00;80.40
16114;DHT22;8161;-33.910;151.156;2023-02-05T05:17:05;33.40;81.90
16114;DHT22;8161;-33.910;151.156;2023-02-05T05:19:33;33.40;79.70
16114;DHT22;8161;-33.910;151.156;2023-02-05T05:22:00;33.60;80.40
16114;DHT22;8161;-33.910;151.156;2023-02-05T05:24:27;33.60;77.90
16114;DHT22;8161;-33.910;151.156;2023-02-05T05:26:55;33.60;77.60
16114;DHT22;8161;-33.910;151.156;2023-02-05T05:29:23;33.30;78.00
16114;DHT22;8161;-33.910;151.156;2023-02-05T05:31:52;33.20;75.00
16114;DHT22;8161;-33.910;151.156;2023-02-05T05:34:19;32.20;79.50
16114;DHT22;8161;-33.910;151.156;2023-02-05T05:36:46;32.70;79.00
16114;DHT22;8161;-33.910;151.156;2023-02-05T05:39:14;32.70;78.00
16114;DHT22;8161;-33.910;151.156;2023-02-05T05:41:55;32.90;77.40
16114;DHT22;8161;-33.910;151.156;2023-02-05T05:44:35;33.00;76.20
16114;DHT22;8161;-33.910;151.156;2023-02-05T05:47:18;32.50;75.30
16114;DHT22;8161;-33.910;151.156;2023-02-05T05:49:46;33.00;77.90
16114;DHT22;8161;-33.910;151.156;2023-02-05T05:52:13;32.90;79.20
16114;DHT22;8161;-33.910;151.156;2023-02-05T05:54:41;33.20;78.40
16114;DHT22;8161;-33.910;151.156;2023-02-05T05:57:08;32.70;76.20
16114;DHT22;8161;-33.910;151.156;2023-02-05T05:59:35;32.80;77.10
16114;DHT22;8161;-33.910;151.156;2023-02-05T06:02:03;33.10;79.10
16114;DHT22;8161;-33.910;151.156;2023-02-05T06:04:30;33.40;78.70
16114;DHT22;8161;-33.910;151.156;2023-02-05T06:06:58;33.60;76.60
16114;DHT22;8161;-33.910;151.156;2023-02-05T06:09:25;33.60;77.70
16114;DHT22;8161;-33.910;151.156;2023-02-05T06:11:53;33.70;77.40
16114;DHT22;8161;-33.910;151.156;2023-02-05T06:14:20;33.60;76.50
16114;DHT22;8161;-33.910;151.156;2023-02-05T06:16:47;33.80;77.70
16114;DHT22;8161;-33.910;151.156;2023-02-05T06:19:15;34.00;78.10
16114;DHT22;8161;-33.910;151.156;2023-02-05T06:21:42;34.00;76.20
16114;DHT22;8161;-33.910;151.156;2023-02-05T06:24:09;34.20;77.20
16114;DHT22;8161;-33.910;151.156;2023-02-05T06:26:37;34.00;76.40
16114;DHT22;8161;-33.910;151.156;2023-02-05T06:29:04;34.00;76.90
16114;DHT22;8161;-33.910;151.156;2023-02-05T06:31:31;34.10;75.10
16114;DHT22;8161;-33.910;151.156;2023-02-05T06:33:58;33.90;80.10
16114;DHT22;8161;-33.910;151.156;2023-02-05T06:36:26;33.80;81.00
16114;DHT22;8161;-33.910;151.156;2023-02-05T06:38:54;33.80;82.80
16114;DHT22;8161;-33.910;151.156;2023-02-05T06:41:21;33.50;81.10
16114;DHT22;8161;-33.910;151.156;2023-02-05T06:43:48;33.80;80.40
16114;DHT22;8161;-33.910;151.156;2023-02-05T06:46:15;34.10;79.60
16114;DHT22;8161;-33.910;151.156;2023-02-05T06:48:42;34.30;79.70
16114;DHT22;8161;-33.910;151.156;2023-02-05T06:51:10;34.40;79.20
16114;DHT22;8161;-33.910;151.156;2023-02-05T06:53:38;34.30;78.00
16114;DHT22;8161;-33.910;151.156;2023-02-05T06:56:06;34.30;79.20
16114;DHT22;8161;-33.910;151.156;2023-02-05T06:58:33;34.10;77.10
16114;DHT22;8161;-33.910;151.156;2023-02-05T07:01:01;34.00;82.10
16114;DHT22;8161;-33.910;151.156;2023-02-05T07:03:29;33.90;82.10
16114;DHT22;8161;-33.910;151.156;2023-02-05T07:06:04;33.50;85.30
16114;DHT22;8161;-33.910;151.156;2023-02-05T07:08:32;33.10;83.70
16114;DHT22;8161;-33.910;151.156;2023-02-05T07:10:59;31.80;85.70
16114;DHT22;8161;-33.910;151.156;2023-02-05T07:13:28;32.00;85.10
16114;DHT22;8161;-33.910;151.156;2023-02-05T07:15:55;32.00;85.20
16114;DHT22;8161;-33.910;151.156;2023-02-05T07:18:23;31.90;88.80
16114;DHT22;8161;-33.910;151.156;2023-02-05T07:20:50;31.80;88.00
16114;DHT22;8161;-33.910;151.156;2023-02-05T07:23:17;31.90;88.80
16114;DHT22;8161;-33.910;151.156;2023-02-05T07:25:44;31.40;87.90
16114;DHT22;8161;-33.910;151.156;2023-02-05T07:28:12;31.30;89.80
16114;DHT22;8161;-33.910;151.156;2023-02-05T07:30:39;31.70;91.80
16114;DHT22;8161;-33.910;151.156;2023-02-05T07:33:06;31.70;90.00
16114;DHT22;8161;-33.910;151.156;2023-02-05T07:35:36;31.30;90.80
16114;DHT22;8161;-33.910;151.156;2023-02-05T07:38:05;31.40;91.30
16114;DHT22;8161;-33.910;151.156;2023-02-05T07:40:32;30.70;92.90
16114;DHT22;8161;-33.910;151.156;2023-02-05T07:42:59;31.00;93.20
16114;DHT22;8161;-33.910;151.156;2023-02-05T07:45:26;31.10;92.90
16114;DHT22;8161;-33.910;151.156;2023-02-05T07:47:54;31.50;92.40
16114;DHT22;8161;-33.910;151.156;2023-02-05T07:50:21;31.30;92.40
16114;DHT22;8161;-33.910;151.156;2023-02-05T07:52:48;31.70;92.20
16114;DHT22;8161;-33.910;151.156;2023-02-05T07:55:15;32.10;91.80
16114;DHT22;8161;-33.910;151.156;2023-02-05T07:57:42;32.70;91.20
16114;DHT22;8161;-33.910;151.156;2023-02-05T08:00:10;33.10;91.00
16114;DHT22;8161;-33.910;151.156;2023-02-05T08:02:38;33.10;92.30
16114;DHT22;8161;-33.910;151.156;2023-02-05T08:05:06;32.70;93.00
16114;DHT22;8161;-33.910;151.156;2023-02-05T08:07:34;31.70;93.60
16114;DHT22;8161;-33.910;151.156;2023-02-05T08:10:04;30.80;95.90
16114;DHT22;8161;-33.910;151.156;2023-02-05T08:12:31;30.50;97.80
16114;DHT22;8161;-33.910;151.156;2023-02-05T08:14:58;29.70;99.20
16114;DHT22;8161;-33.910;151.156;2023-02-05T08:17:26;30.00;98.00
16114;DHT22;8161;-33.910;151.156;2023-02-05T08:19:53;29.40;99.90
16114;DHT22;8161;-33.910;151.156;2023-02-05T08:22:20;28.50;99.90
16114;DHT22;8161;-33.910;151.156;2023-02-05T08:24:47;28.40;99.90
16114;DHT22;8161;-33.910;151.156;2023-02-05T08:27:15;28.20;99.90
16114;DHT22;8161;-33.910;151.156;2023-02-05T08:29:45;27.90;99.90
16114;DHT22;8161;-33.910;151.156;2023-02-05T08:32:13;28.00;99.90
16114;DHT22;8161;-33.910;151.156;2023-02-05T08:34:41;27.50;99.90
16114;DHT22;8161;-33.910;151.156;2023-02-05T08:37:09;27.40;99.90
16114;DHT22;8161;-33.910;151.156;2023-02-05T08:39:36;27.10;99.90
16114;DHT22;8161;-33.910;151.156;2023-02-05T08:42:04;27.10;99.90
16114;DHT22;8161;-33.910;151.156;2023-02-05T08:44:31;26.80;99.90
16114;DHT22;8161;-33.910;151.156;2023-02-05T08:46:58;26.70;99.90
16114;DHT22;8161;-33.910;151.156;2023-02-05T08:49:25;26.90;99.90
16114;DHT22;8161;-33.910;151.156;2023-02-05T08:51:53;27.00;99.90
16114;DHT22;8161;-33.910;151.156;2023-02-05T08:54:21;27.30;99.90
16114;DHT22;8161;-33.910;151.156;2023-02-05T08:56:50;27.40;99.90
16114;DHT22;8161;-33.910;151.156;2023-02-05T08:59:18;27.20;99.90
16114;DHT22;8161;-33.910;151.156;2023-02-05T09:01:45;27.00;99.90
16114;DHT22;8161;-33.910;151.156;2023-02-05T09:04:18;27.50;99.90
16114;DHT22;8161;-33.910;151.156;2023-02-05T09:06:46;27.00;99.90
16114;DHT22;8161;-33.910;151.156;2023-02-05T09:09:14;27.30;99.90
16114;DHT22;8161;-33.910;151.156;2023-02-05T09:11:41;26.70;99.90
16114;DHT22;8161;-33.910;151.156;2023-02-05T09:14:09;27.00;99.90
16114;DHT22;8161;-33.910;151.156;2023-02-05T09:16:36;27.00;99.90
16114;DHT22;8161;-33.910;151.156;2023-02-05T09:19:04;26.30;99.90
16114;DHT22;8161;-33.910;151.156;2023-02-05T09:21:31;27.00;99.90
16114;DHT22;8161;-33.910;151.156;2023-02-05T09:23:59;26.60;99.90
16114;DHT22;8161;-33.910;151.156;2023-02-05T09:26:26;26.60;99.90
16114;DHT22;8161;-33.910;151.156;2023-02-05T09:28:53;27.10;99.90
16114;DHT22;8161;-33.910;151.156;2023-02-05T09:31:21;26.40;99.90
16114;DHT22;8161;-33.910;151.156;2023-02-05T09:33:48;26.80;99.90
16114;DHT22;8161;-33.910;151.156;2023-02-05T09:36:21;26.60;99.90
16114;DHT22;8161;-33.910;151.156;2023-02-05T09:38:49;26.60;99.90
16114;DHT22;8161;-33.910;151.156;2023-02-05T09:52:35;26.40;99.90
16114;DHT22;8161;-33.910;151.156;2023-02-05T09:57:40;26.00;99.90
16114;DHT22;8161;-33.910;151.156;2023-02-05T10:00:20;26.80;99.90
16114;DHT22;8161;-33.910;151.156;2023-02-05T10:06:04;25.70;99.90
16114;DHT22;8161;-33.910;151.156;2023-02-05T10:09:29;25.40;99.90
16114;DHT22;8161;-33.910;151.156;2023-02-05T10:12:13;26.20;99.90
16114;DHT22;8161;-33.910;151.156;2023-02-05T10:23:41;25.80;99.90
16114;DHT22;8161;-33.910;151.156;2023-02-05T10:26:14;25.80;99.90
16114;DHT22;8161;-33.910;151.156;2023-02-05T10:29:01;26.10;99.90
16114;DHT22;8161;-33.910;151.156;2023-02-05T10:36:56;25.50;99.90
16114;DHT22;8161;-33.910;151.156;2023-02-05T10:39:26;25.80;99.90
16114;DHT22;8161;-33.910;151.156;2023-02-05T10:41:59;25.80;99.90
16114;DHT22;8161;-33.910;151.156;2023-02-05T10:44:49;26.00;99.90
16114;DHT22;8161;-33.910;151.156;2023-02-05T10:50:13;25.40;99.90
16114;DHT22;8161;-33.910;151.156;2023-02-05T10:52:42;25.40;99.90
16114;DHT22;8161;-33.910;151.156;2023-02-05T10:55:12;25.40;99.90
16114;DHT22;8161;-33.910;151.156;2023-02-05T10:57:40;25.70;99.90
16114;DHT22;8161;-33.910;151.156;2023-02-05T11:00:16;25.40;99.90
16114;DHT22;8161;-33.910;151.156;2023-02-05T11:02:48;25.60;99.90
16114;DHT22;8161;-33.910;151.156;2023-02-05T11:05:19;25.50;99.90
16114;DHT22;8161;-33.910;151.156;2023-02-05T11:07:50;25.60;99.90
16114;DHT22;8161;-33.910;151.156;2023-02-05T11:10:26;25.60;99.90
16114;DHT22;8161;-33.910;151.156;2023-02-05T11:13:17;25.00;99.90
16114;DHT22;8161;-33.910;151.156;2023-02-05T11:16:07;25.00;99.90
16114;DHT22;8161;-33.910;151.156;2023-02-05T11:18:38;24.80;99.90
16114;DHT22;8161;-33.910;151.156;2023-02-05T11:21:06;25.20;99.90
16114;DHT22;8161;-33.910;151.156;2023-02-05T11:23:36;25.70;99.90
16114;DHT22;8161;-33.910;151.156;2023-02-05T11:26:20;25.40;99.90
16114;DHT22;8161;-33.910;151.156;2023-02-05T11:28:48;25.70;99.90
16114;DHT22;8161;-33.910;151.156;2023-02-05T11:33:49;25.40;99.90
16114;DHT22;8161;-33.910;151.156;2023-02-05T11:36:22;25.00;99.90
16114;DHT22;8161;-33.910;151.156;2023-02-05T11:38:54;25.40;99.90
16114;DHT22;8161;-33.910;151.156;2023-02-05T11:41:38;25.20;99.90
16114;DHT22;8161;-33.910;151.156;2023-02-05T11:46:52;25.40;99.90
16114;DHT22;8161;-33.910;151.156;2023-02-05T11:49:37;25.50;99.90
16114;DHT22;8161;-33.910;151.156;2023-02-05T11:52:12;24.80;99.90
16114;DHT22;8161;-33.910;151.156;2023-02-05T11:54:45;24.90;99.90
16114;DHT22;8161;-33.910;151.156;2023-02-05T12:00:13;25.30;99.90
16114;DHT22;8161;-33.910;151.156;2023-02-05T12:02:44;25.20;99.90
16114;DHT22;8161;-33.910;151.156;2023-02-05T12:10:35;25.10;99.90
16114;DHT22;8161;-33.910;151.156;2023-02-05T12:21:36;24.80;99.90
16114;DHT22;8161;-33.910;151.156;2023-02-05T12:27:15;25.40;99.90
16114;DHT22;8161;-33.910;151.156;2023-02-05T12:32:38;24.80;99.90
16114;DHT22;8161;-33.910;151.156;2023-02-05T12:45:36;25.00;99.90
16114;DHT22;8161;-33.910;151.156;2023-02-05T12:54:04;24.80;99.90
16114;DHT22;8161;-33.910;151.156;2023-02-05T12:56:51;25.00;99.90
16114;DHT22;8161;-33.910;151.156;2023-02-05T13:04:44;25.00;99.90
16114;DHT22;8161;-33.910;151.156;2023-02-05T13:07:35;25.30;99.90
16114;DHT22;8161;-33.910;151.156;2023-02-05T13:12:48;24.30;99.90
16114;DHT22;8161;-33.910;151.156;2023-02-05T13:15:33;24.40;99.90
16114;DHT22;8161;-33.910;151.156;2023-02-05T13:18:17;24.20;99.90
16114;DHT22;8161;-33.910;151.156;2023-02-05T13:20:57;24.30;99.90
16114;DHT22;8161;-33.910;151.156;2023-02-05T13:23:48;24.60;99.90
16114;DHT22;8161;-33.910;151.156;2023-02-05T13:26:39;24.40;99.90
16114;DHT22;8161;-33.910;151.156;2023-02-05T13:29:25;24.80;99.90
16114;DHT22;8161;-33.910;151.156;2023-02-05T13:31:59;24.70;99.90
16114;DHT22;8161;-33.910;151.156;2023-02-05T13:34:28;24.50;99.90
16114;DHT22;8161;-33.910;151.156;2023-02-05T13:37:06;24.90;99.90
16114;DHT22;8161;-33.910;151.156;2023-02-05T13:56:19;24.60;99.90
16114;DHT22;8161;-33.910;151.156;2023-02-05T14:04:38;24.60;99.90
16114;DHT22;8161;-33.910;151.156;2023-02-05T14:07:18;24.90;99.90
16114;DHT22;8161;-33.910;151.156;2023-02-05T14:09:56;24.60;99.90
16114;DHT22;8161;-33.910;151.156;2023-02-05T14:12:32;24.40;99.90
16114;DHT22;8161;-33.910;151.156;2023-02-05T14:20:36;23.90;99.90
16114;DHT22;8161;-33.910;151.156;2023-02-05T14:23:13;24.30;99.90
16114;DHT22;8161;-33.910;151.156;2023-02-05T14:25:44;24.20;99.90
16114;DHT22;8161;-33.910;151.156;2023-02-05T14:30:54;24.70;99.90
16114;DHT22;8161;-33.910;151.156;2023-02-05T14:41:48;24.40;99.90
16114;DHT22;8161;-33.910;151.156;2023-02-05T14:44:29;24.30;99.90
16114;DHT22;8161;-33.910;151.156;2023-02-05T14:47:01;24.70;99.90
16114;DHT22;8161;-33.910;151.156;2023-02-05T14:52:00;24.50;99.90
16114;DHT22;8161;-33.910;151.156;2023-02-05T14:54:52;24.50;99.90
16114;DHT22;8161;-33.910;151.156;2023-02-05T15:08:43;24.50;99.90
16114;DHT22;8161;-33.910;151.156;2023-02-05T15:11:26;24.20;99.90
16114;DHT22;8161;-33.910;151.156;2023-02-05T15:20:19;24.40;99.90
16114;DHT22;8161;-33.910;151.156;2023-02-05T15:22:59;24.80;99.90
16114;DHT22;8161;-33.910;151.156;2023-02-05T15:25:30;24.10;99.90
16114;DHT22;8161;-33.910;151.156;2023-02-05T15:31:13;24.70;99.90
16114;DHT22;8161;-33.910;151.156;2023-02-05T15:36:44;24.40;99.90
16114;DHT22;8161;-33.910;151.156;2023-02-05T15:39:25;24.50;99.90
16114;DHT22;8161;-33.910;151.156;2023-02-05T15:41:56;24.30;99.90
16114;DHT22;8161;-33.910;151.156;2023-02-05T15:44:33;24.70;99.90
16114;DHT22;8161;-33.910;151.156;2023-02-05T15:47:04;24.30;99.90
16114;DHT22;8161;-33.910;151.156;2023-02-05T15:49:53;23.90;99.90
16114;DHT22;8161;-33.910;151.156;2023-02-05T15:52:27;23.80;99.90
16114;DHT22;8161;-33.910;151.156;2023-02-05T15:54:58;24.00;99.90
16114;DHT22;8161;-33.910;151.156;2023-02-05T15:57:28;23.80;99.90
16114;DHT22;8161;-33.910;151.156;2023-02-05T15:59:58;24.10;99.90
16114;DHT22;8161;-33.910;151.156;2023-02-05T16:02:28;24.10;99.90
16114;DHT22;8161;-33.910;151.156;2023-02-05T16:05:02;24.10;99.90
16114;DHT22;8161;-33.910;151.156;2023-02-05T16:07:40;23.90;99.90
16114;DHT22;8161;-33.910;151.156;2023-02-05T16:10:17;24.10;99.90
16114;DHT22;8161;-33.910;151.156;2023-02-05T16:13:06;24.10;99.90
16114;DHT22;8161;-33.910;151.156;2023-02-05T16:15:47;23.80;99.90
16114;DHT22;8161;-33.910;151.156;2023-02-05T16:18:34;23.80;99.90
16114;DHT22;8161;-33.910;151.156;2023-02-05T16:21:17;23.60;99.90
16114;DHT22;8161;-33.910;151.156;2023-02-05T16:23:54;24.00;99.90
16114;DHT22;8161;-33.910;151.156;2023-02-05T16:26:25;23.90;99.90
16114;DHT22;8161;-33.910;151.156;2023-02-05T16:29:01;24.30;99.90
16114;DHT22;8161;-33.910;151.156;2023-02-05T16:31:30;23.50;99.90
16114;DHT22;8161;-33.910;151.156;2023-02-05T16:34:04;24.00;99.90
16114;DHT22;8161;-33.910;151.156;2023-02-05T16:36:39;23.90;99.90
16114;DHT22;8161;-33.910;151.156;2023-02-05T16:44:41;23.80;99.90
16114;DHT22;8161;-33.910;151.156;2023-02-05T16:47:16;24.30;99.90
16114;DHT22;8161;-33.910;151.156;2023-02-05T16:49:45;23.90;99.90
16114;DHT22;8161;-33.910;151.156;2023-02-05T16:52:30;23.60;99.90
16114;DHT22;8161;-33.910;151.156;2023-02-05T16:58:03;23.70;99.90
16114;DHT22;8161;-33.910;151.156;2023-02-05T17:00:32;23.70;99.90
16114;DHT22;8161;-33.910;151.156;2023-02-05T17:03:27;23.50;99.90
16114;DHT22;8161;-33.910;151.156;2023-02-05T17:05:59;23.90;99.90
16114;DHT22;8161;-33.910;151.156;2023-02-05T17:08:36;23.80;99.90
16114;DHT22;8161;-33.910;151.156;2023-02-05T17:11:06;23.30;99.90
16114;DHT22;8161;-33.910;151.156;2023-02-05T17:13:39;24.00;99.90
16114;DHT22;8161;-33.910;151.156;2023-02-05T17:19:00;23.60;99.90
16114;DHT22;8161;-33.910;151.156;2023-02-05T17:21:35;23.50;99.90
16114;DHT22;8161;-33.910;151.156;2023-02-05T17:24:03;23.70;99.90
16114;DHT22;8161;-33.910;151.156;2023-02-05T17:26:38;23.40;99.90
16114;DHT22;8161;-33.910;151.156;2023-02-05T17:29:14;23.60;99.90
16114;DHT22;8161;-33.910;151.156;2023-02-05T17:31:41;23.90;99.90
16114;DHT22;8161;-33.910;151.156;2023-02-05T17:34:10;23.50;99.90
16114;DHT22;8161;-33.910;151.156;2023-02-05T17:36:37;23.30;99.90
16114;DHT22;8161;-33.910;151.156;2023-02-05T17:39:04;23.70;99.90
16114;DHT22;8161;-33.910;151.156;2023-02-05T17:41:35;23.40;99.90
16114;DHT22;8161;-33.910;151.156;2023-02-05T17:44:16;23.70;99.90
16114;DHT22;8161;-33.910;151.156;2023-02-05T17:46:44;23.30;99.90
16114;DHT22;8161;-33.910;151.156;2023-02-05T17:49:12;23.50;99.90
16114;DHT22;8161;-33.910;151.156;2023-02-05T17:51:39;23.90;99.90
16114;DHT22;8161;-33.910;151.156;2023-02-05T17:54:14;23.60;99.90
16114;DHT22;8161;-33.910;151.156;2023-02-05T17:56:43;23.60;99.90
16114;DHT22;8161;-33.910;151.156;2023-02-05T17:59:15;23.30;99.90
16114;DHT22;8161;-33.910;151.156;2023-02-05T18:01:43;23.60;99.90
16114;DHT22;8161;-33.910;151.156;2023-02-05T18:04:10;23.40;99.90
16114;DHT22;8161;-33.910;151.156;2023-02-05T18:06:40;23.70;99.90
16114;DHT22;8161;-33.910;151.156;2023-02-05T18:09:08;23.60;99.90
16114;DHT22;8161;-33.910;151.156;2023-02-05T18:11:36;23.50;99.90
16114;DHT22;8161;-33.910;151.156;2023-02-05T18:14:03;23.50;99.90
16114;DHT22;8161;-33.910;151.156;2023-02-05T18:16:31;23.70;99.90
16114;DHT22;8161;-33.910;151.156;2023-02-05T18:18:59;23.70;99.90
16114;DHT22;8161;-33.910;151.156;2023-02-05T18:21:26;23.60;99.90
16114;DHT22;8161;-33.910;151.156;2023-02-05T18:23:53;23.50;99.90
16114;DHT22;8161;-33.910;151.156;2023-02-05T18:26:21;23.70;99.90
16114;DHT22;8161;-33.910;151.156;2023-02-05T18:28:48;23.70;99.90
16114;DHT22;8161;-33.910;151.156;2023-02-05T18:31:16;23.80;99.90
16114;DHT22;8161;-33.910;151.156;2023-02-05T18:33:44;23.90;99.90
16114;DHT22;8161;-33.910;151.156;2023-02-05T18:36:12;23.70;99.90
16114;DHT22;8161;-33.910;151.156;2023-02-05T18:38:41;23.60;99.90
16114;DHT22;8161;-33.910;151.156;2023-02-05T18:41:12;23.60;99.90